sensor_id;sensor_type;location;lat;lon;timestamp;P1;durP1;ratioP1;P2;durP2;ratioP2
1272;SDS011;629;48.632;10.230;2022-08-20T01:12:10;15.13;;;13.57;;
1272;SDS011;629;48.632;10.230;2022-08-20T01:14:37;15.70;;;14.20;;
1272;SDS011;629;48.632;10.230;2022-08-20T01:17:13;16.20;;;14.60;;
1272;SDS011;629;48.632;10.230;2022-08-20T07:02:14;7.60;;;7.00;;
1272;SDS011;629;48.632;10.230;2022-08-20T07:04:41;10.00;;;7.03;;
1272;SDS011;629;48.632;10.230;2022-08-20T07:07:14;8.00;;;7.33;;
1272;SDS011;629;48.632;10.230;2022-08-20T07:09:41;7.00;;;6.40;;
1272;SDS011;629;48.632;10.230;2022-08-20T07:12:09;7.03;;;6.40;;
1272;SDS011;629;48.632;10.230;2022-08-20T07:14:36;8.23;;;7.50;;
1272;SDS011;629;48.632;10.230;2022-08-20T07:17:03;7.70;;;7.00;;
1272;SDS011;629;48.632;10.230;2022-08-20T07:19:32;10.37;;;8.63;;
1272;SDS011;629;48.632;10.230;2022-08-20T07:21:59;7.87;;;7.17;;
1272;SDS011;629;48.632;10.230;2022-08-20T07:24:26;8.10;;;7.50;;
1272;SDS011;629;48.632;10.230;2022-08-20T07:26:53;7.17;;;6.57;;
1272;SDS011;629;48.632;10.230;2022-08-20T07:29:20;7.50;;;6.73;;
1272;SDS011;629;48.632;10.230;2022-08-20T07:32:07;10.03;;;6.47;;
1272;SDS011;629;48.632;10.230;2022-08-20T07:34:58;6.30;;;5.70;;
1272;SDS011;629;48.632;10.230;2022-08-20T07:37:25;6.00;;;5.47;;
1272;SDS011;629;48.632;10.230;2022-08-20T07:39:52;6.60;;;6.00;;
1272;SDS011;629;48.632;10.230;2022-08-20T07:42:19;7.10;;;6.50;;
1272;SDS011;629;48.632;10.230;2022-08-20T07:44:46;6.77;;;6.10;;
1272;SDS011;629;48.632;10.230;2022-08-20T07:47:16;7.17;;;6.57;;
1272;SDS011;629;48.632;10.230;2022-08-20T07:49:44;7.37;;;6.77;;
1272;SDS011;629;48.632;10.230;2022-08-20T07:52:12;8.63;;;7.63;;
1272;SDS011;629;48.632;10.230;2022-08-20T07:54:39;7.57;;;6.87;;
1272;SDS011;629;48.632;10.230;2022-08-20T07:57:07;7.17;;;6.57;;
1272;SDS011;629;48.632;10.230;2022-08-20T08:02:11;8.27;;;7.60;;
1272;SDS011;629;48.632;10.230;2022-08-20T08:04:38;8.90;;;8.13;;
1272;SDS011;629;48.632;10.230;2022-08-20T08:07:05;8.63;;;7.93;;
1272;SDS011;629;48.632;10.230;2022-08-20T08:09:33;8.40;;;7.80;;
1272;SDS011;629;48.632;10.230;2022-08-20T08:12:01;9.93;;;8.63;;
1272;SDS011;629;48.632;10.230;2022-08-20T08:14:30;8.77;;;8.10;;
1272;SDS011;629;48.632;10.230;2022-08-20T08:17:00;9.90;;;8.47;;
1272;SDS011;629;48.632;10.230;2022-08-20T08:19:30;8.97;;;8.27;;
1272;SDS011;629;48.632;10.230;2022-08-20T08:22:01;9.47;;;8.57;;
1272;SDS011;629;48.632;10.230;2022-08-20T08:24:29;10.47;;;9.67;;
1272;SDS011;629;48.632;10.230;2022-08-20T08:26:57;8.93;;;8.30;;
1272;SDS011;629;48.632;10.230;2022-08-20T08:31:52;10.80;;;9.80;;
1272;SDS011;629;48.632;10.230;2022-08-20T08:34:19;10.97;;;9.97;;
1272;SDS011;629;48.632;10.230;2022-08-20T08:36:49;10.57;;;9.67;;
1272;SDS011;629;48.632;10.230;2022-08-20T08:39:16;11.10;;;10.20;;
1272;SDS011;629;48.632;10.230;2022-08-20T08:41:44;10.30;;;9.30;;
1272;SDS011;629;48.632;10.230;2022-08-20T08:44:15;9.90;;;9.00;;
1272;SDS011;629;48.632;10.230;2022-08-20T08:46:48;11.60;;;10.60;;
1272;SDS011;629;48.632;10.230;2022-08-20T09:22:58;11.57;;;9.00;;
1272;SDS011;629;48.632;10.230;2022-08-20T09:25:25;9.77;;;8.97;;
1272;SDS011;629;48.632;10.230;2022-08-20T09:27:52;10.03;;;9.17;;
1272;SDS011;629;48.632;10.230;2022-08-20T09:30:19;8.93;;;8.13;;
1272;SDS011;629;48.632;10.230;2022-08-20T09:32:46;9.00;;;8.30;;
1272;SDS011;629;48.632;10.230;2022-08-20T09:35:13;8.37;;;7.67;;
1272;SDS011;629;48.632;10.230;2022-08-20T09:37:40;8.50;;;7.80;;
1272;SDS011;629;48.632;10.230;2022-08-20T09:40:10;8.67;;;7.80;;
1272;SDS011;629;48.632;10.230;2022-08-20T09:42:37;9.90;;;7.40;;
1272;SDS011;629;48.632;10.230;2022-08-20T09:45:05;8.13;;;7.43;;
1272;SDS011;629;48.632;10.230;2022-08-20T09:47:32;7.67;;;6.97;;
1272;SDS011;629;48.632;10.230;2022-08-20T09:49:59;7.13;;;6.43;;
1272;SDS011;629;48.632;10.230;2022-08-20T09:52:27;7.23;;;6.73;;
1272;SDS011;629;48.632;10.230;2022-08-20T09:54:57;7.57;;;6.97;;
1272;SDS011;629;48.632;10.230;2022-08-20T09:57:27;7.67;;;7.07;;
1272;SDS011;629;48.632;10.230;2022-08-20T09:59:57;7.90;;;7.30;;
1272;SDS011;629;48.632;10.230;2022-08-20T10:02:27;7.93;;;7.33;;
1272;SDS011;629;48.632;10.230;2022-08-20T10:04:54;7.83;;;7.13;;
1272;SDS011;629;48.632;10.230;2022-08-20T10:07:21;6.80;;;6.30;;
1272;SDS011;629;48.632;10.230;2022-08-20T10:09:48;6.77;;;6.27;;
1272;SDS011;629;48.632;10.230;2022-08-20T10:12:15;6.70;;;6.10;;
1272;SDS011;629;48.632;10.230;2022-08-20T10:14:43;6.77;;;6.07;;
1272;SDS011;629;48.632;10.230;2022-08-20T10:17:10;6.43;;;5.93;;
1272;SDS011;629;48.632;10.230;2022-08-20T10:19:38;6.03;;;5.53;;
1272;SDS011;629;48.632;10.230;2022-08-20T10:22:04;6.37;;;5.50;;
1272;SDS011;629;48.632;10.230;2022-08-20T10:24:31;5.30;;;4.80;;
1272;SDS011;629;48.632;10.230;2022-08-20T10:26:59;5.63;;;5.23;;
1272;SDS011;629;48.632;10.230;2022-08-20T10:29:27;5.47;;;4.97;;
1272;SDS011;629;48.632;10.230;2022-08-20T10:31:56;4.90;;;4.40;;
1272;SDS011;629;48.632;10.230;2022-08-20T10:34:33;4.63;;;4.23;;
1272;SDS011;629;48.632;10.230;2022-08-20T10:37:00;5.37;;;4.93;;
1272;SDS011;629;48.632;10.230;2022-08-20T10:39:27;4.87;;;4.30;;
1272;SDS011;629;48.632;10.230;2022-08-20T10:41:54;4.00;;;3.70;;
1272;SDS011;629;48.632;10.230;2022-08-20T10:44:21;4.10;;;3.70;;
1272;SDS011;629;48.632;10.230;2022-08-20T10:46:48;4.40;;;4.10;;
1272;SDS011;629;48.632;10.230;2022-08-20T10:49:16;4.60;;;4.20;;
1272;SDS011;629;48.632;10.230;2022-08-20T10:51:43;3.40;;;3.20;;
1272;SDS011;629;48.632;10.230;2022-08-20T10:54:10;4.33;;;4.03;;
1272;SDS011;629;48.632;10.230;2022-08-20T10:56:37;3.90;;;3.40;;
1272;SDS011;629;48.632;10.230;2022-08-20T10:59:04;3.53;;;3.33;;
1272;SDS011;629;48.632;10.230;2022-08-20T11:01:31;2.93;;;2.73;;
1272;SDS011;629;48.632;10.230;2022-08-20T11:03:58;3.17;;;2.97;;
1272;SDS011;629;48.632;10.230;2022-08-20T11:06:26;2.90;;;2.70;;
1272;SDS011;629;48.632;10.230;2022-08-20T11:08:53;2.50;;;2.40;;
1272;SDS011;629;48.632;10.230;2022-08-20T11:11:20;3.00;;;2.80;;
1272;SDS011;629;48.632;10.230;2022-08-20T11:13:47;2.93;;;2.73;;
1272;SDS011;629;48.632;10.230;2022-08-20T11:16:14;4.40;;;2.40;;
1272;SDS011;629;48.632;10.230;2022-08-20T19:23:38;4.70;;;4.40;;
1272;SDS011;629;48.632;10.230;2022-08-20T19:26:09;5.20;;;4.50;;
1272;SDS011;629;48.632;10.230;2022-08-20T19:28:39;5.63;;;4.90;;
1272;SDS011;629;48.632;10.230;2022-08-20T19:31:09;4.80;;;4.27;;
1272;SDS011;629;48.632;10.230;2022-08-20T19:33:38;5.60;;;5.10;;
1272;SDS011;629;48.632;10.230;2022-08-20T19:36:12;6.33;;;5.80;;
1272;SDS011;629;48.632;10.230;2022-08-20T19:38:48;8.50;;;5.60;;
1272;SDS011;629;48.632;10.230;2022-08-20T19:41:19;5.90;;;5.40;;
1272;SDS011;629;48.632;10.230;2022-08-20T19:43:48;6.83;;;5.37;;
1272;SDS011;629;48.632;10.230;2022-08-20T19:46:16;5.50;;;5.00;;
1272;SDS011;629;48.632;10.230;2022-08-20T19:48:49;6.17;;;4.63;;
1272;SDS011;629;48.632;10.230;2022-08-20T19:51:29;7.93;;;5.93;;
1272;SDS011;629;48.632;10.230;2022-08-20T19:54:04;5.40;;;5.00;;
1272;SDS011;629;48.632;10.230;2022-08-20T19:56:37;5.70;;;5.30;;
1272;SDS011;629;48.632;10.230;2022-08-20T19:59:07;7.43;;;5.07;;
1272;SDS011;629;48.632;10.230;2022-08-20T20:01:35;7.40;;;4.90;;
1272;SDS011;629;48.632;10.230;2022-08-20T20:04:04;5.13;;;4.63;;
1272;SDS011;629;48.632;10.230;2022-08-20T20:06:35;6.10;;;5.60;;
1272;SDS011;629;48.632;10.230;2022-08-20T20:09:05;4.67;;;4.30;;
1272;SDS011;629;48.632;10.230;2022-08-20T20:11:39;4.47;;;4.07;;
1272;SDS011;629;48.632;10.230;2022-08-20T20:14:11;5.80;;;4.50;;
1272;SDS011;629;48.632;10.230;2022-08-20T20:16:40;6.30;;;5.00;;
1272;SDS011;629;48.632;10.230;2022-08-20T20:19:09;6.13;;;5.23;;
1272;SDS011;629;48.632;10.230;2022-08-20T20:21:39;7.10;;;5.13;;
1272;SDS011;629;48.632;10.230;2022-08-20T20:24:09;6.80;;;5.37;;
1272;SDS011;629;48.632;10.230;2022-08-20T20:26:45;5.70;;;5.20;;
1272;SDS011;629;48.632;10.230;2022-08-20T20:29:19;6.93;;;5.80;;
1272;SDS011;629;48.632;10.230;2022-08-20T20:31:50;6.90;;;6.20;;
1272;SDS011;629;48.632;10.230;2022-08-20T20:34:22;6.77;;;6.17;;
1272;SDS011;629;48.632;10.230;2022-08-20T20:37:00;8.27;;;7.47;;
1272;SDS011;629;48.632;10.230;2022-08-20T20:39:32;10.73;;;7.20;;
1272;SDS011;629;48.632;10.230;2022-08-20T20:42:02;10.83;;;7.57;;
1272;SDS011;629;48.632;10.230;2022-08-20T20:44:31;9.63;;;7.80;;
1272;SDS011;629;48.632;10.230;2022-08-20T20:47:01;10.10;;;8.60;;
1272;SDS011;629;48.632;10.230;2022-08-20T20:49:31;8.50;;;7.70;;
1272;SDS011;629;48.632;10.230;2022-08-20T20:52:01;7.80;;;6.60;;
1272;SDS011;629;48.632;10.230;2022-08-20T20:54:35;8.43;;;6.37;;
1272;SDS011;629;48.632;10.230;2022-08-20T20:57:06;7.87;;;7.07;;
1272;SDS011;629;48.632;10.230;2022-08-20T20:59:35;9.87;;;8.10;;
1272;SDS011;629;48.632;10.230;2022-08-20T21:02:02;8.10;;;7.30;;
1272;SDS011;629;48.632;10.230;2022-08-20T21:04:29;8.97;;;7.33;;
1272;SDS011;629;48.632;10.230;2022-08-20T21:06:57;10.53;;;7.63;;
1272;SDS011;629;48.632;10.230;2022-08-20T21:09:33;9.00;;;8.10;;
1272;SDS011;629;48.632;10.230;2022-08-20T21:12:01;9.60;;;7.80;;
1272;SDS011;629;48.632;10.230;2022-08-20T21:14:29;9.27;;;8.43;;
1272;SDS011;629;48.632;10.230;2022-08-20T21:16:56;9.03;;;8.33;;
1272;SDS011;629;48.632;10.230;2022-08-20T21:19:25;8.63;;;7.83;;
1272;SDS011;629;48.632;10.230;2022-08-20T21:21:53;7.80;;;7.10;;
1272;SDS011;629;48.632;10.230;2022-08-20T21:24:20;9.07;;;8.17;;
1272;SDS011;629;48.632;10.230;2022-08-20T21:26:49;7.63;;;5.60;;
1272;SDS011;629;48.632;10.230;2022-08-20T21:29:19;7.87;;;5.37;;
1272;SDS011;629;48.632;10.230;2022-08-20T21:31:49;7.83;;;6.07;;
1272;SDS011;629;48.632;10.230;2022-08-20T21:34:16;7.80;;;7.10;;
1272;SDS011;629;48.632;10.230;2022-08-20T21:36:43;7.30;;;6.60;;
1272;SDS011;629;48.632;10.230;2022-08-20T21:39:11;9.50;;;6.90;;
1272;SDS011;629;48.632;10.230;2022-08-20T21:41:38;7.37;;;6.77;;
1272;SDS011;629;48.632;10.230;2022-08-20T21:44:08;8.80;;;6.97;;
1272;SDS011;629;48.632;10.230;2022-08-20T21:46:37;8.47;;;6.70;;
1272;SDS011;629;48.632;10.230;2022-08-20T21:49:04;9.03;;;6.77;;
1272;SDS011;629;48.632;10.230;2022-08-20T21:51:31;11.50;;;7.53;;
1272;SDS011;629;48.632;10.230;2022-08-20T21:53:59;9.90;;;7.33;;
1272;SDS011;629;48.632;10.230;2022-08-20T21:56:26;10.63;;;9.33;;
1272;SDS011;629;48.632;10.230;2022-08-20T21:58:54;12.97;;;11.77;;
1272;SDS011;629;48.632;10.230;2022-08-20T22:01:23;16.77;;;12.70;;
1272;SDS011;629;48.632;10.230;2022-08-20T22:03:50;15.07;;;13.73;;
1272;SDS011;629;48.632;10.230;2022-08-20T22:06:17;16.23;;;14.73;;
1272;SDS011;629;48.632;10.230;2022-08-20T22:08:44;15.43;;;13.73;;
1272;SDS011;629;48.632;10.230;2022-08-20T22:11:11;14.80;;;13.40;;
1272;SDS011;629;48.632;10.230;2022-08-20T22:13:39;12.93;;;11.73;;
1272;SDS011;629;48.632;10.230;2022-08-20T22:16:10;12.70;;;11.53;;
1272;SDS011;629;48.632;10.230;2022-08-20T22:18:41;10.97;;;10.07;;
1272;SDS011;629;48.632;10.230;2022-08-20T22:21:13;9.77;;;8.97;;
1272;SDS011;629;48.632;10.230;2022-08-20T22:23:42;9.70;;;8.90;;
1272;SDS011;629;48.632;10.230;2022-08-20T22:26:09;8.63;;;7.93;;
1272;SDS011;629;48.632;10.230;2022-08-20T22:28:36;9.03;;;8.13;;
1272;SDS011;629;48.632;10.230;2022-08-20T22:31:04;8.17;;;7.47;;
1272;SDS011;629;48.632;10.230;2022-08-20T22:33:31;8.40;;;7.60;;
1272;SDS011;629;48.632;10.230;2022-08-20T22:36:01;8.17;;;7.33;;
1272;SDS011;629;48.632;10.230;2022-08-20T22:38:30;8.03;;;7.37;;
1272;SDS011;629;48.632;10.230;2022-08-20T22:40:57;7.50;;;6.77;;
1272;SDS011;629;48.632;10.230;2022-08-20T22:43:24;7.30;;;6.60;;
1272;SDS011;629;48.632;10.230;2022-08-20T22:45:52;7.80;;;6.33;;
1272;SDS011;629;48.632;10.230;2022-08-20T22:48:22;7.70;;;6.10;;
1272;SDS011;629;48.632;10.230;2022-08-20T22:50:49;6.00;;;5.50;;
1272;SDS011;629;48.632;10.230;2022-08-20T22:53:19;9.57;;;6.40;;
1272;SDS011;629;48.632;10.230;2022-08-20T22:55:48;7.47;;;6.73;;
1272;SDS011;629;48.632;10.230;2022-08-20T22:58:16;6.90;;;6.20;;
1272;SDS011;629;48.632;10.230;2022-08-20T23:00:44;7.97;;;7.33;;
1272;SDS011;629;48.632;10.230;2022-08-20T23:03:12;8.77;;;7.97;;
1272;SDS011;629;48.632;10.230;2022-08-20T23:05:41;9.20;;;8.50;;
1272;SDS011;629;48.632;10.230;2022-08-20T23:08:08;7.80;;;7.20;;
1272;SDS011;629;48.632;10.230;2022-08-20T23:10:37;9.07;;;7.97;;
1272;SDS011;629;48.632;10.230;2022-08-20T23:13:04;9.10;;;8.30;;
1272;SDS011;629;48.632;10.230;2022-08-20T23:15:33;8.80;;;8.10;;
1272;SDS011;629;48.632;10.230;2022-08-20T23:18:04;8.87;;;8.00;;
1272;SDS011;629;48.632;10.230;2022-08-20T23:20:33;8.10;;;7.40;;
1272;SDS011;629;48.632;10.230;2022-08-20T23:23:00;9.50;;;8.60;;
1272;SDS011;629;48.632;10.230;2022-08-20T23:25:27;9.50;;;8.60;;
1272;SDS011;629;48.632;10.230;2022-08-20T23:27:56;8.47;;;7.73;;
1272;SDS011;629;48.632;10.230;2022-08-20T23:30:23;8.50;;;7.80;;
1272;SDS011;629;48.632;10.230;2022-08-20T23:32:51;8.80;;;7.97;;
1272;SDS011;629;48.632;10.230;2022-08-20T23:35:18;8.43;;;7.63;;
1272;SDS011;629;48.632;10.230;2022-08-20T23:37:48;8.47;;;7.57;;
1272;SDS011;629;48.632;10.230;2022-08-20T23:40:17;8.97;;;8.20;;
1272;SDS011;629;48.632;10.230;2022-08-20T23:42:45;7.67;;;6.90;;
1272;SDS011;629;48.632;10.230;2022-08-20T23:45:14;7.20;;;6.60;;
1272;SDS011;629;48.632;10.230;2022-08-20T23:47:41;8.30;;;7.37;;
1272;SDS011;629;48.632;10.230;2022-08-20T23:50:12;8.70;;;7.57;;
1272;SDS011;629;48.632;10.230;2022-08-20T23:52:40;6.47;;;6.00;;
1272;SDS011;629;48.632;10.230;2022-08-20T23:55:08;6.80;;;6.30;;
1272;SDS011;629;48.632;10.230;2022-08-20T23:57:35;8.53;;;6.10;;
